Time;durP1;ratioP1;P1;durP2;ratioP2;P2;SDS_P1;SDS_P2;PMS_P1;PMS_P2;Temp;Humidity;BMP_temperature;BMP_pressure;BME280_temperature;BME280_humidity;BME280_pressure;Samples;Min_cycle;Max_cycle;Signal;HPM_P1;HPM_P2
2023/12/23 00:08:33;;;;;;;37.70;9.70;;;;;;;0.70;72.79;95949.83;435460;1253;97356;-40
2023/12/23 00:18:40;;;;;;;10.00;3.60;;;;;;;0.61;72.91;95954.34;435241;1251;110973;-40
2023/12/23 00:28:47;;;;;;;13.20;5.40;;;;;;;0.56;73.11;95961.38;435424;1250;109167;-40
2023/12/23 00:38:54;;;;;;;11.50;4.80;;;;;;;0.46;73.33;95973.85;435492;1254;97522;-39
2023/12/23 00:49:02;;;;;;;11.90;2.90;;;;;;;0.34;73.66;95986.36;435072;1253;363878;-38
2023/12/23 00:59:10;;;;;;;10.20;3.20;;;;;;;0.28;73.66;95996.91;435201;1251;108158;-39
2023/12/23 01:09:17;;;;;;;7.70;3.30;;;;;;;0.33;73.66;95993.77;435700;1251;97865;-40
2023/12/23 01:19:24;;;;;;;11.40;3.10;;;;;;;0.29;73.70;96006.23;435463;1254;110800;-39
2023/12/23 01:29:31;;;;;;;11.00;2.40;;;;;;;0.28;73.76;96015.30;435601;1249;106520;-40
2023/12/23 01:39:39;;;;;;;15.70;3.70;;;;;;;0.30;73.81;96024.70;435306;1254;97468;-39
2023/12/23 01:49:47;;;;;;;3.10;1.10;;;;;;;0.33;73.97;96027.82;435258;1250;96696;-40
2023/12/23 01:59:55;;;;;;;3.00;1.60;;;;;;;0.44;74.02;96048.63;435309;1250;109957;-39
2023/12/23 02:10:00;;;;;;;8.50;2.30;;;;;;;0.46;74.07;96046.59;435156;1251;107546;-40
2023/12/23 02:20:07;;;;;;;7.10;1.30;;;;;;;0.39;73.88;96065.56;435496;1254;97504;-39
2023/12/23 02:30:17;;;;;;;7.10;1.30;;;;;;;0.27;74.09;96080.10;436136;1253;110081;-39
2023/12/23 02:40:24;;;;;;;4.00;0.80;;;;;;;0.21;73.87;96084.23;435140;1253;111532;-41
2023/12/23 02:50:31;;;;;;;3.70;1.00;;;;;;;0.27;73.82;96093.11;435069;1258;97925;-39
2023/12/23 03:00:38;;;;;;;7.20;1.40;;;;;;;0.18;73.93;96107.95;435230;1253;109500;-40
2023/12/23 03:10:45;;;;;;;8.00;1.30;;;;;;;0.15;73.83;96119.72;435219;1253;108515;-40
2023/12/23 03:20:52;;;;;;;6.20;2.50;;;;;;;0.20;73.52;96137.45;435081;1257;97870;-39
2023/12/23 03:30:59;;;;;;;3.70;1.10;;;;;;;0.39;73.05;96163.23;435100;1275;97978;-39
2023/12/23 03:41:07;;;;;;;2.90;1.00;;;;;;;0.48;72.82;96174.92;435256;1256;107326;-39
2023/12/23 03:51:14;;;;;;;7.90;1.70;;;;;;;0.41;72.69;96180.15;435117;1252;96643;-39
2023/12/23 04:01:21;;;;;;;8.90;3.40;;;;;;;0.34;73.06;96184.15;435219;1257;97850;-40
2023/12/23 04:11:29;;;;;;;2.10;0.80;;;;;;;0.31;74.25;96210.30;435100;1253;109650;-40
2023/12/23 04:21:36;;;;;;;6.00;1.60;;;;;;;-0.18;78.99;96236.34;435171;1252;107981;-40
2023/12/23 04:31:42;;;;;;;3.60;1.20;;;;;;;-0.49;80.67;96266.45;435202;1257;97902;-39
2023/12/23 04:41:50;;;;;;;5.10;1.00;;;;;;;-0.42;81.77;96288.10;435052;1257;110563;-39
2023/12/23 04:51:58;;;;;;;0.60;0.50;;;;;;;-0.26;82.11;96312.12;435138;1257;108534;-39
2023/12/23 05:02:03;;;;;;;2.40;0.80;;;;;;;-0.11;81.66;96346.20;435267;1253;98123;-39
2023/12/23 05:12:10;;;;;;;5.00;1.00;;;;;;;-0.13;80.80;96378.55;435132;1257;111331;-40
2023/12/23 05:22:17;;;;;;;6.20;1.10;;;;;;;-0.23;80.35;96399.47;435152;1256;108230;-40
2023/12/23 05:32:25;;;;;;;5.60;0.90;;;;;;;-0.19;79.72;96430.56;435131;1253;97964;-40
2023/12/23 06:12:56;;;;;;;5.20;2.00;;;;;;;-0.42;77.69;96510.02;435150;1257;109477;-39
2023/12/23 06:23:03;;;;;;;3.40;1.40;;;;;;;-0.57;77.27;96530.73;435154;1258;108284;-41
2023/12/23 06:43:15;;;;;;;3.90;1.30;;;;;;;-0.54;77.11;96589.50;435083;1256;111530;-42
2023/12/23 06:53:42;;;;;;;6.60;1.20;;;;;;;-0.62;77.35;96605.16;435170;1257;109365;-40
2023/12/23 07:03:49;;;;;;;3.10;0.80;;;;;;;-0.74;77.35;96615.96;435182;1257;97896;-39
2023/12/23 07:13:57;;;;;;;1.40;0.60;;;;;;;-0.57;77.41;96636.33;435198;1258;110372;-41
2023/12/23 07:24:03;;;;;;;8.50;2.00;;;;;;;-0.43;77.57;96646.01;435232;1253;107559;-39
2023/12/23 07:34:09;;;;;;;2.50;0.90;;;;;;;-0.38;77.34;96657.48;435097;1255;97890;-39
2023/12/23 07:44:17;;;;;;;25.90;7.70;;;;;;;-0.28;77.18;96655.02;435147;1257;110526;-41
2023/12/23 07:54:24;;;;;;;11.40;4.70;;;;;;;-0.15;77.11;96654.42;435128;1257;108596;-40
2023/12/23 08:14:38;;;;;;;24.00;8.50;;;;;;;-0.11;76.82;96653.40;435221;1256;97871;-40
2023/12/23 08:24:44;;;;;;;5.60;1.80;;;;;;;-0.10;76.71;96645.48;435182;1258;111335;-40
2023/12/23 08:34:51;;;;;;;4.60;2.40;;;;;;;0.01;76.80;96642.44;435019;1253;108953;-40
2023/12/23 08:44:58;;;;;;;16.00;7.70;;;;;;;0.05;76.86;96641.10;435068;1257;97531;-40
2023/12/23 08:55:04;;;;;;;10.20;6.10;;;;;;;0.06;76.86;96631.86;434982;1257;110140;-40
2023/12/23 09:05:09;;;;;;;12.00;5.40;;;;;;;0.27;76.41;96636.73;435283;1257;107451;-39
2023/12/23 09:15:17;;;;;;;35.90;13.50;;;;;;;0.42;76.08;96631.86;435088;1256;107750;-40
2023/12/23 09:25:25;;;;;;;8.00;3.20;;;;;;;0.85;76.13;96618.46;435051;1257;97370;-39
2023/12/23 09:35:33;;;;;;;7.30;2.40;;;;;;;1.34;75.34;96604.82;435101;1258;109275;-39
2023/12/23 09:45:42;;;;;;;6.30;2.40;;;;;;;1.31;74.60;96601.10;434938;1258;107851;-40
2023/12/23 09:55:49;;;;;;;7.60;2.00;;;;;;;0.98;74.14;96600.27;435092;1253;98012;-38
2023/12/23 10:16:04;;;;;;;21.10;5.10;;;;;;;0.69;74.86;96587.06;435029;1256;108109;-40
2023/12/23 10:26:13;;;;;;;19.00;5.50;;;;;;;0.74;75.33;96575.21;434956;1258;97995;-39
2023/12/23 10:36:22;;;;;;;24.60;6.70;;;;;;;0.74;75.75;96567.70;435182;1257;109245;-40
2023/12/23 10:46:31;;;;;;;50.80;13.00;;;;;;;0.75;76.08;96562.36;435022;1258;108188;-41
2023/12/23 10:56:40;;;;;;;67.70;19.90;;;;;;;0.77;76.45;96551.61;435123;1253;107012;-39
2023/12/23 11:06:49;;;;;;;40.30;13.90;;;;;;;0.94;76.45;96544.83;434983;1259;97217;-40
2023/12/23 11:16:56;;;;;;;;;;;;;;;1.13;76.70;96538.98;435047;1257;107912;-39
2023/12/23 11:27:04;;;;;;;46.20;14.90;;;;;;;1.19;76.98;96534.36;435483;1259;97185;-38
2023/12/23 11:37:12;;;;;;;25.10;8.10;;;;;;;1.15;76.91;96531.21;435099;1253;97899;-40
2023/12/23 11:47:17;;;;;;;13.00;5.30;;;;;;;1.24;76.86;96521.52;435092;1258;111064;-40
2023/12/23 11:57:24;;;;;;;32.50;9.10;;;;;;;1.31;77.23;96517.06;435046;1253;107443;-40
2023/12/23 12:07:31;;;;;;;15.90;4.70;;;;;;;1.23;77.65;96510.65;435065;1259;97887;-40
2023/12/23 12:17:38;;;;;;;29.30;13.00;;;;;;;1.06;78.17;96514.13;435058;1258;108642;-39
2023/12/23 12:27:45;;;;;;;19.50;7.20;;;;;;;1.05;78.44;96506.70;434970;1259;108067;-39
2023/12/23 12:37:53;;;;;;;32.80;12.10;;;;;;;1.15;78.63;96510.98;435218;1258;97883;-40
2023/12/23 12:48:06;;;;;;;20.40;5.50;;;;;;;1.16;78.98;96511.37;435330;1258;110500;-39
2023/12/23 12:58:13;;;;;;;37.40;11.00;;;;;;;1.13;79.15;96516.80;434679;1257;108505;-39
2023/12/23 13:08:19;;;;;;;28.00;8.30;;;;;;;1.06;79.40;96530.77;435017;1258;97883;-40
2023/12/23 13:28:33;;;;;;;25.90;10.50;;;;;;;0.84;80.27;96549.19;435110;1258;109333;-39
2023/12/23 13:38:40;;;;;;;48.90;17.30;;;;;;;0.80;80.94;96561.36;434967;1259;97909;-40
2023/12/23 13:48:48;;;;;;;38.40;14.70;;;;;;;0.69;81.89;96571.14;435693;1258;110770;-40
2023/12/23 13:58:55;;;;;;;30.30;9.00;;;;;;;0.65;82.09;96579.86;435106;1257;108093;-38
2023/12/23 14:19:09;;;;;;;25.90;9.50;;;;;;;0.68;82.74;96599.91;435032;1258;111712;-39
2023/12/23 14:39:23;;;;;;;22.70;9.00;;;;;;;0.64;83.73;96627.80;435011;1257;97871;-40
2023/12/23 14:49:31;;;;;;;11.70;4.40;;;;;;;0.58;83.96;96646.11;434974;1267;110434;-39
2023/12/23 14:59:38;;;;;;;11.50;4.90;;;;;;;0.62;83.90;96661.91;435010;1257;107293;-40
2023/12/23 15:09:43;;;;;;;8.00;3.20;;;;;;;0.54;84.06;96676.95;435105;1259;97872;-40
2023/12/23 15:19:51;;;;;;;8.10;3.40;;;;;;;0.31;84.20;96700.31;435141;1258;110608;-40
2023/12/23 15:29:58;;;;;;;10.10;3.80;;;;;;;0.23;84.41;96713.52;435693;1257;108662;-38
2023/12/23 15:40:06;;;;;;;8.50;3.90;;;;;;;0.20;84.64;96725.29;435002;1267;97896;-40
2023/12/23 15:50:14;;;;;;;14.30;5.20;;;;;;;0.13;84.70;96746.69;435214;1256;110706;-40
2023/12/23 16:10:26;;;;;;;5.80;2.90;;;;;;;0.04;84.72;96784.86;435300;1253;97973;-40
2023/12/23 16:20:32;;;;;;;7.40;3.70;;;;;;;0.12;85.06;96798.27;434929;1257;109391;-39
2023/12/23 16:40:46;;;;;;;12.30;4.80;;;;;;;0.03;85.18;96811.38;435027;1259;97947;-39
2023/12/23 16:50:54;;;;;;;15.70;6.30;;;;;;;0.07;85.37;96825.33;434998;1266;110639;-38
2023/12/23 17:01:00;;;;;;;14.00;5.00;;;;;;;0.20;85.41;96841.77;435035;1257;107671;-39
2023/12/23 17:11:06;;;;;;;16.60;6.60;;;;;;;0.25;85.61;96860.31;435012;1256;96629;-39
2023/12/23 17:21:14;;;;;;;20.90;9.80;;;;;;;0.19;85.63;96863.17;435160;1257;109111;-39
2023/12/23 17:31:20;;;;;;;17.10;7.90;;;;;;;0.18;85.67;96860.98;435021;1256;108295;-39
2023/12/23 17:41:26;;;;;;;16.00;9.20;;;;;;;0.07;85.34;96864.27;435108;1254;97976;-39
2023/12/23 17:51:33;;;;;;;17.50;6.70;;;;;;;-0.10;85.34;96874.88;435159;1257;110115;-42
2023/12/23 18:01:40;;;;;;;20.10;11.50;;;;;;;-0.29;85.81;96892.39;435088;1256;109362;-39
2023/12/23 18:11:47;;;;;;;21.80;10.10;;;;;;;-0.38;85.54;96903.41;434990;1254;97899;-40
2023/12/23 18:21:54;;;;;;;27.00;11.20;;;;;;;-0.37;85.80;96906.76;435049;1253;109757;-40
2023/12/23 18:32:02;;;;;;;28.70;10.40;;;;;;;-0.42;85.94;96925.02;435126;1258;108261;-40
2023/12/23 18:42:09;;;;;;;48.10;16.50;;;;;;;-0.47;85.96;96936.80;435243;1257;97881;-39
2023/12/23 18:52:16;;;;;;;52.60;19.20;;;;;;;-0.50;85.92;96952.38;435125;1258;109256;-39
2023/12/23 19:02:22;;;;;;;46.10;16.30;;;;;;;-0.43;86.25;96965.69;434962;1254;108391;-40
2023/12/23 19:12:29;;;;;;;50.20;16.60;;;;;;;-0.40;86.53;96967.89;435141;1257;97326;-39
2023/12/23 19:22:36;;;;;;;41.00;14.80;;;;;;;-0.35;86.69;96996.23;435083;1258;110687;-40
2023/12/23 19:32:43;;;;;;;7.40;3.70;;;;;;;-0.19;86.86;97008.39;434820;1258;107558;-39
2023/12/23 19:42:50;;;;;;;42.10;13.80;;;;;;;-0.06;87.03;97023.36;435122;1253;97896;-39
2023/12/23 19:52:56;;;;;;;32.90;12.50;;;;;;;-0.03;87.06;97039.67;435083;1258;109469;-39
2023/12/23 20:03:04;;;;;;;22.90;10.20;;;;;;;-0.09;87.14;97056.73;435182;1258;107873;-39
2023/12/23 20:13:11;;;;;;;7.10;3.80;;;;;;;-0.05;87.09;97077.43;435019;1254;97755;-40
2023/12/23 20:23:18;;;;;;;6.00;3.30;;;;;;;0.02;87.22;97085.02;435200;1252;110711;-39
2023/12/23 20:33:25;;;;;;;12.40;4.00;;;;;;;0.02;87.21;97091.77;435252;1257;108233;-39
2023/12/23 20:43:32;;;;;;;8.80;3.40;;;;;;;0.00;87.23;97103.59;435142;1257;97887;-39
2023/12/23 20:53:39;;;;;;;4.10;2.90;;;;;;;0.03;86.84;97102.27;435140;1256;110227;-40
2023/12/23 21:03:46;;;;;;;6.40;2.80;;;;;;;0.09;86.73;97119.42;435179;1254;108048;-39
2023/12/23 21:13:54;;;;;;;8.60;3.40;;;;;;;0.11;86.80;97118.34;435243;1253;97890;-38
2023/12/23 21:34:06;;;;;;;6.00;3.20;;;;;;;0.06;86.75;97140.41;434927;1257;108839;-41
2023/12/23 21:44:13;;;;;;;6.70;3.10;;;;;;;0.14;86.88;97146.84;435085;1252;97895;-39
2023/12/23 22:04:26;;;;;;;11.20;5.50;;;;;;;0.07;86.85;97156.81;435447;1252;97905;-40
2023/12/23 22:14:33;;;;;;;9.40;5.80;;;;;;;-0.12;86.68;97159.22;435135;1257;98510;-40
2023/12/23 22:24:43;;;;;;;10.60;6.00;;;;;;;-0.17;86.88;97158.98;435209;1256;97839;-39
2023/12/23 22:34:52;;;;;;;7.90;4.30;;;;;;;-0.08;87.01;97158.83;434879;1253;108459;-40
2023/12/23 22:44:59;;;;;;;10.50;6.30;;;;;;;0.02;87.31;97151.73;435010;1257;97977;-40
2023/12/23 22:55:06;;;;;;;22.50;8.80;;;;;;;0.08;87.65;97165.72;435238;1257;110458;-38
2023/12/23 23:15:18;;;;;;;27.30;10.60;;;;;;;0.16;87.97;97183.60;435232;1253;97877;-40
2023/12/23 23:25:25;;;;;;;47.20;17.50;;;;;;;0.27;88.19;97191.45;435068;1257;109837;-39
2023/12/23 23:35:31;;;;;;;46.40;17.20;;;;;;;0.37;88.37;97192.89;435239;1253;108383;-40
2023/12/23 23:45:38;;;;;;;34.10;13.70;;;;;;;0.40;88.55;97194.02;435106;1253;97867;-39
2023/12/23 23:55:45;;;;;;;17.10;7.00;;;;;;;0.39;88.50;97196.72;435233;1256;110494;-39
